Time;durP1;ratioP1;P1;durP2;ratioP2;P2;SDS_P1;SDS_P2;PMS_P1;PMS_P2;Temp;Humidity;BMP_temperature;BMP_pressure;BME280_temperature;BME280_humidity;BME280_pressure;Samples;Min_cycle;Max_cycle;Signal;HPM_P1;HPM_P2
2021/09/21 00:14:03;;;;;;;;;;;;;;;;;;;;;
2021/09/21 00:17:45;;;;;;;2.97;1.33;;;10.50;94.80;;;;;;5808203;24;20026;-91
2021/09/21 00:20:34;;;;;;;3.92;1.25;;;10.50;94.80;;;;;;5878689;24;20033;-89
2021/09/21 00:23:06;;;;;;;4.05;1.10;;;10.50;94.90;;;;;;6025639;23;20021;-88
2021/09/21 00:25:34;;;;;;;2.63;1.70;;;10.50;94.90;;;;;;6025215;23;20006;-88
2021/09/21 00:28:13;;;;;;;3.17;1.90;;;10.40;95.00;;;;;;6050279;23;20007;-89
2021/09/21 00:30:49;;;;;;;3.83;1.60;;;10.40;95.10;;;;;;6049645;23;20002;-89
2021/09/21 00:33:25;;;;;;;2.75;1.40;;;10.40;95.20;;;;;;6049267;23;20007;-90
2021/09/21 00:35:58;;;;;;;3.47;1.92;;;10.40;95.30;;;;;;6025315;23;20010;-90
2021/09/21 00:38:47;;;;;;;2.50;1.98;;;10.30;95.30;;;;;;6026465;23;20010;-91
2021/09/21 00:41:19;;;;;;;3.67;1.67;;;10.30;95.50;;;;;;6024151;23;20017;-91
2021/09/21 00:43:57;;;;;;;2.97;1.83;;;10.30;95.40;;;;;;6048945;23;20007;-90
2021/09/21 00:46:27;;;;;;;2.90;1.40;;;10.30;95.50;;;;;;6027673;23;20015;-89
2021/09/21 00:48:59;;;;;;;5.22;1.63;;;10.30;95.60;;;;;;6048949;23;20014;-91
2021/09/21 00:51:27;;;;;;;2.92;1.90;;;10.20;95.60;;;;;;6053456;23;20014;-90
2021/09/21 00:53:56;;;;;;;3.35;1.77;;;10.20;95.60;;;;;;6053725;23;20006;-89
2021/09/21 00:56:25;;;;;;;2.08;1.40;;;10.20;95.60;;;;;;6053812;23;20010;-90
2021/09/21 00:59:02;;;;;;;3.50;1.90;;;10.20;95.70;;;;;;6054079;23;20010;-89
2021/09/21 01:01:29;;;;;;;4.00;1.77;;;10.10;95.70;;;;;;6051565;23;20010;-90
2021/09/21 01:04:21;;;;;;;3.13;1.85;;;10.00;95.70;;;;;;6056002;23;20006;-89
2021/09/21 01:07:06;;;;;;;3.77;2.37;;;10.00;95.80;;;;;;6053749;23;20006;-90
2021/09/21 01:09:43;;;;;;;5.22;2.33;;;10.00;95.90;;;;;;6079618;23;20351;-90
2021/09/21 01:12:19;;;;;;;3.95;1.80;;;9.90;95.90;;;;;;6055675;23;20014;-91
2021/09/21 01:15:08;;;;;;;;;;;;;;;;;;;;;
2021/09/21 01:26:59;;;;;;;4.85;2.45;;;9.70;96.20;;;;;;6137566;23;20006;-90
2021/09/21 01:29:57;;;;;;;3.08;2.08;;;9.70;96.40;;;;;;6057656;23;20009;-89
2021/09/21 01:33:18;;;;;;;3.97;3.10;;;9.60;96.50;;;;;;6063097;23;20025;-89
2021/09/21 01:36:16;;;;;;;3.75;2.20;;;9.60;96.60;;;;;;6041782;23;20017;-90
2021/09/21 01:39:31;;;;;;;4.67;1.90;;;9.60;96.70;;;;;;6036583;23;20051;-89
2021/09/21 01:45:51;;;;;;;3.20;1.85;;;9.60;96.80;;;;;;6050297;23;20017;-90
2021/09/21 01:49:20;;;;;;;3.05;1.77;;;9.60;97.00;;;;;;6043534;23;20021;-91
2021/09/21 02:04:37;;;;;;;3.13;1.80;;;9.50;97.10;;;;;;6082003;23;20013;-89
2021/09/21 02:07:25;;;;;;;;;;;;;;;;;;;;;
2021/09/21 02:10:22;;;;;;;;;;;;;;;;;;;;;
2021/09/21 02:12:55;;;;;;;4.13;2.92;;;9.50;97.30;;;;;;6076221;23;20025;-91
2021/09/21 02:33:25;;;;;;;3.25;1.70;;;9.50;97.60;;;;;;5924961;23;20434;-89
2021/09/21 02:45:24;;;;;;;3.45;2.00;;;9.60;97.70;;;;;;6019208;23;20012;-90
2021/09/21 02:48:38;;;;;;;3.05;1.58;;;9.70;97.80;;;;;;5961450;24;20081;-91
2021/09/21 02:52:09;;;;;;;3.53;1.95;;;9.70;97.80;;;;;;5943330;24;20122;-90
2021/09/21 02:55:19;;;;;;;2.53;1.67;;;9.70;97.80;;;;;;6022395;23;20006;-89
2021/09/21 02:57:53;;;;;;;3.95;1.67;;;9.70;97.90;;;;;;5973876;23;20103;-89
2021/09/21 03:00:29;;;;;;;4.80;2.17;;;9.70;98.20;;;;;;5996806;23;20342;-90
2021/09/21 03:04:09;;;;;;;3.13;2.05;;;9.70;98.10;;;;;;5996222;23;20099;-90
2021/09/21 03:06:44;;;;;;;3.92;1.90;;;9.70;98.20;;;;;;5932512;23;20458;-89
2021/09/21 03:18:31;;;;;;;7.07;5.20;;;9.60;98.50;;;;;;6094764;23;20459;-89
2021/09/21 03:21:07;;;;;;;5.80;3.70;;;9.50;98.50;;;;;;6046841;23;20043;-90
2021/09/21 03:23:57;;;;;;;5.28;3.13;;;9.50;98.60;;;;;;6023577;23;20140;-89
2021/09/21 03:26:57;;;;;;;4.13;2.35;;;9.50;98.70;;;;;;6040662;23;20021;-89
2021/09/21 03:29:44;;;;;;;5.22;2.45;;;9.50;98.70;;;;;;6048065;23;20361;-90
2021/09/21 03:32:33;;;;;;;4.20;3.05;;;9.60;98.70;;;;;;6010147;23;20018;-89
2021/09/21 03:35:24;;;;;;;4.43;3.05;;;9.50;98.80;;;;;;6053924;23;20064;-88
2021/09/21 03:37:51;;;;;;;3.97;2.80;;;9.50;98.90;;;;;;6068473;23;20021;-89
2021/09/21 03:40:31;;;;;;;4.55;2.70;;;9.50;98.80;;;;;;6048901;23;20025;-90
2021/09/21 03:43:03;;;;;;;5.13;3.00;;;9.50;98.90;;;;;;6047702;23;20014;-90
2021/09/21 03:45:33;;;;;;;3.72;2.65;;;9.50;99.00;;;;;;6024716;23;20010;-90
2021/09/21 03:48:13;;;;;;;9.02;3.47;;;9.50;99.00;;;;;;6022643;23;20018;-90
2021/09/21 03:50:57;;;;;;;4.35;3.10;;;9.50;99.00;;;;;;6048644;23;20013;-90
2021/09/21 03:53:24;;;;;;;4.72;2.90;;;9.50;99.00;;;;;;6005962;23;20019;-88
2021/09/21 03:56:20;;;;;;;5.05;3.25;;;9.50;99.10;;;;;;5959124;23;20023;-89
2021/09/21 03:59:07;;;;;;;;;;;;;;;;;;;;;
2021/09/21 04:02:18;;;;;;;4.95;3.63;;;9.50;99.20;;;;;;5997462;23;20176;-89
2021/09/21 04:04:47;;;;;;;6.43;3.67;;;9.60;99.30;;;;;;5960814;23;20128;-88
2021/09/21 04:07:51;;;;;;;4.25;2.88;;;9.60;99.40;;;;;;5970119;23;20031;-89
2021/09/21 04:10:50;;;;;;;3.55;3.20;;;9.70;99.30;;;;;;5983620;23;20441;-90
2021/09/21 04:13:25;;;;;;;5.72;3.08;;;9.70;99.30;;;;;;5941443;23;20441;-89
2021/09/21 04:16:14;;;;;;;5.07;2.92;;;9.70;99.30;;;;;;5949454;24;20340;-89
2021/09/21 04:19:08;;;;;;;5.82;3.63;;;9.70;99.40;;;;;;5973386;24;20332;-90
2021/09/21 04:21:53;;;;;;;4.60;2.53;;;9.70;99.50;;;;;;5954575;24;20020;-90
2021/09/21 04:24:31;;;;;;;5.60;3.65;;;9.70;99.50;;;;;;5951048;24;20855;-89
2021/09/21 04:27:46;;;;;;;4.78;3.30;;;9.60;99.60;;;;;;5952860;24;20008;-90
2021/09/21 04:31:07;;;;;;;;;;;;;;;;;;;;;
2021/09/21 04:34:15;;;;;;;4.13;2.67;;;9.60;99.80;;;;;;5980860;23;20028;-89
2021/09/21 04:36:45;;;;;;;;;;;9.70;99.80;;;;;;6002751;23;20042;-90
2021/09/21 04:39:46;;;;;;;4.22;2.72;;;9.70;99.80;;;;;;6027839;23;19921;-90
2021/09/21 04:42:21;;;;;;;5.13;3.50;;;9.80;99.70;;;;;;6007677;23;20339;-89
2021/09/21 04:45:05;;;;;;;6.78;3.72;;;9.90;99.70;;;;;;5959320;23;20050;-89
2021/09/21 04:47:36;;;;;;;5.32;3.42;;;10.00;99.70;;;;;;5955696;23;20018;-89
2021/09/21 04:50:09;;;;;;;4.45;3.22;;;10.10;99.60;;;;;;5981512;23;20016;-92
2021/09/21 04:52:47;;;;;;;7.13;3.90;;;10.10;99.50;;;;;;6013350;23;20022;-90
2021/09/21 04:55:16;;;;;;;6.18;4.47;;;10.10;99.50;;;;;;6031694;23;20362;-86
2021/09/21 04:58:01;;;;;;;6.63;3.70;;;10.20;99.50;;;;;;6046170;23;20031;-85
2021/09/21 05:00:54;;;;;;;5.50;3.70;;;10.20;99.50;;;;;;6050503;23;20018;-85
2021/09/21 05:03:48;;;;;;;6.55;4.10;;;10.30;99.40;;;;;;6071568;23;20037;-86
2021/09/21 05:06:24;;;;;;;;;;;10.40;99.50;;;;;;6044784;23;20375;-85
2021/09/21 05:08:51;;;;;;;5.90;3.40;;;10.40;99.50;;;;;;6039679;23;20317;-85
2021/09/21 05:11:32;;;;;;;6.35;4.63;;;10.40;99.40;;;;;;6047770;23;20014;-85
2021/09/21 05:14:12;;;;;;;5.50;4.13;;;10.50;99.50;;;;;;6061808;23;20010;-86
2021/09/21 05:16:51;;;;;;;7.47;3.90;;;10.60;99.50;;;;;;6045320;23;20296;-86
2021/09/21 05:22:29;;;;;;;6.25;3.78;;;10.60;99.40;;;;;;6051802;23;20021;-86
2021/09/21 05:25:06;;;;;;;7.38;4.43;;;10.70;99.40;;;;;;6054189;23;20013;-89
2021/09/21 05:28:05;;;;;;;5.32;3.80;;;10.80;99.40;;;;;;6074515;23;20068;-90
2021/09/21 05:30:38;;;;;;;4.38;3.63;;;10.80;99.40;;;;;;6049296;23;20010;-90
2021/09/21 05:33:54;;;;;;;4.80;3.35;;;10.90;99.30;;;;;;6071006;23;20017;-90
2021/09/21 05:37:12;;;;;;;7.07;4.47;;;10.90;99.40;;;;;;6063491;23;20013;-91
2021/09/21 05:40:04;;;;;;;;;;;;;;;;;;;;;
2021/09/21 05:43:31;;;;;;;6.28;4.10;;;11.00;99.30;;;;;;6109443;23;20436;-90
2021/09/21 05:46:52;;;;;;;4.80;3.65;;;11.10;99.40;;;;;;5990655;23;20026;-90
2021/09/21 05:49:41;;;;;;;4.78;3.78;;;11.10;99.40;;;;;;6063468;23;20328;-91
2021/09/21 05:56:16;;;;;;;7.43;3.90;;;11.30;99.30;;;;;;6051507;23;20017;-86
2021/09/21 05:59:01;;;;;;;;;;;;;;;;;;;;;
2021/09/21 06:03:05;;;;;;;7.40;4.07;;;11.40;99.30;;;;;;6075597;23;20022;-88
2021/09/21 06:07:16;;;;;;;5.68;4.07;;;11.50;99.30;;;;;;6105724;23;20029;-88
2021/09/21 06:09:54;;;;;;;5.18;3.67;;;11.50;99.30;;;;;;6005265;23;20022;-90
2021/09/21 06:12:37;;;;;;;7.10;4.60;;;11.60;99.30;;;;;;5976083;23;20012;-94
2021/09/21 06:15:07;;;;;;;6.13;4.63;;;11.70;99.30;;;;;;5964180;23;20031;-90
2021/09/21 06:17:54;;;;;;;7.22;4.30;;;11.70;99.30;;;;;;5986354;23;20004;-93
2021/09/21 06:21:44;;;;;;;;;;;;;;;;;;;;;
2021/09/21 06:25:22;;;;;;;;;;;;;;;;;;;;;
2021/09/21 06:28:19;;;;;;;6.22;4.13;;;12.00;99.40;;;;;;5989193;23;20014;-94
2021/09/21 06:31:35;;;;;;;;;;;;;;;;;;;;;
2021/09/21 06:34:29;;;;;;;;;;;;;;;;;;;;;
2021/09/21 06:38:00;;;;;;;;;;;;;;;;;;;;;
2021/09/21 06:45:19;;;;;;;8.77;7.30;;;12.60;99.30;;;;;;5964675;24;20036;-92
2021/09/21 06:49:39;;;;;;;10.82;7.80;;;12.70;99.20;;;;;;5954325;24;20020;-93
2021/09/21 06:52:14;;;;;;;9.37;6.50;;;12.70;99.30;;;;;;5952959;24;20032;-92
2021/09/21 06:54:47;;;;;;;8.48;5.75;;;12.90;99.20;;;;;;5984994;23;20249;-93
2021/09/21 06:57:14;;;;;;;6.95;6.10;;;12.90;99.30;;;;;;6021731;23;20026;-87
2021/09/21 06:59:48;;;;;;;5.72;4.10;;;13.00;99.40;;;;;;6041478;23;20469;-88
2021/09/21 07:02:58;;;;;;;;;;;;;;;;;;;;;
2021/09/21 07:06:26;;;;;;;4.88;3.33;;;13.10;99.30;;;;;;6129059;23;20024;-89
2021/09/21 07:08:52;;;;;;;7.68;4.50;;;13.20;99.30;;;;;;6044692;23;20006;-89
2021/09/21 07:11:21;;;;;;;5.75;3.80;;;13.20;99.30;;;;;;6023379;23;20017;-89
2021/09/21 07:13:48;;;;;;;4.35;3.38;;;13.30;99.40;;;;;;6044933;23;20459;-89
2021/09/21 07:16:15;;;;;;;5.95;3.97;;;13.40;99.40;;;;;;6068430;23;20014;-90
2021/09/21 07:18:42;;;;;;;6.15;3.40;;;13.50;99.40;;;;;;6049614;23;20013;-89
2021/09/21 07:21:08;;;;;;;5.45;3.80;;;13.60;99.40;;;;;;6050584;23;20018;-88
2021/09/21 07:23:35;;;;;;;6.03;4.05;;;13.70;99.30;;;;;;6079744;23;20457;-89
2021/09/21 07:26:01;;;;;;;5.20;3.53;;;13.80;99.10;;;;;;6044242;23;20009;-88
2021/09/21 07:28:28;;;;;;;10.00;3.90;;;13.90;99.00;;;;;;6044625;23;20022;-88
2021/09/21 07:30:55;;;;;;;4.75;3.58;;;14.00;98.90;;;;;;6046264;23;20022;-89
2021/09/21 07:33:21;;;;;;;7.65;3.22;;;14.20;98.80;;;;;;6047482;23;20462;-89
2021/09/21 07:35:48;;;;;;;4.93;3.72;;;14.30;98.70;;;;;;6000363;23;20018;-90
2021/09/21 07:38:15;;;;;;;5.57;4.10;;;14.30;98.70;;;;;;6045662;23;20344;-89
2021/09/21 07:40:41;;;;;;;4.40;3.42;;;14.40;98.70;;;;;;6047237;23;20088;-89
2021/09/21 07:43:11;;;;;;;4.30;3.75;;;14.40;98.70;;;;;;6071160;23;20006;-89
2021/09/21 07:45:37;;;;;;;5.65;3.63;;;14.40;98.60;;;;;;6072711;23;20006;-89
2021/09/21 07:48:04;;;;;;;8.38;4.18;;;14.50;98.50;;;;;;6045983;23;20438;-89
2021/09/21 07:50:34;;;;;;;6.93;3.85;;;14.50;98.40;;;;;;6046438;23;20470;-89
2021/09/21 07:53:06;;;;;;;5.18;3.88;;;14.60;98.30;;;;;;6046479;23;20022;-90
2021/09/21 07:55:39;;;;;;;5.38;3.33;;;14.70;98.20;;;;;;6007471;23;20453;-91
2021/09/21 07:58:32;;;;;;;4.63;3.25;;;14.80;98.20;;;;;;5966100;23;20030;-91
2021/09/21 08:01:17;;;;;;;3.75;3.13;;;15.00;98.00;;;;;;5954642;23;20019;-90
2021/09/21 08:04:10;;;;;;;3.50;2.40;;;15.10;97.80;;;;;;5985399;23;20488;-90
2021/09/21 08:07:28;;;;;;;;;;;;;;;;;;;;;
2021/09/21 08:10:37;;;;;;;3.50;2.05;;;15.60;97.00;;;;;;5965831;23;20019;-90
2021/09/21 08:13:43;;;;;;;4.20;1.92;;;15.70;96.60;;;;;;5963132;23;20117;-89
2021/09/21 08:16:28;;;;;;;2.58;1.30;;;15.90;96.40;;;;;;6007730;23;20011;-90
2021/09/21 08:18:58;;;;;;;2.88;1.40;;;16.10;95.70;;;;;;5960548;23;20499;-90
2021/09/21 08:21:51;;;;;;;2.47;1.23;;;16.20;95.60;;;;;;5928015;24;20020;-90
2021/09/21 08:28:50;;;;;;;2.28;1.35;;;16.60;94.80;;;;;;5951896;24;20008;-91
2021/09/21 08:31:43;;;;;;;5.20;1.98;;;16.70;94.40;;;;;;5905908;24;20024;-91
2021/09/21 08:34:43;;;;;;;2.92;1.70;;;16.80;94.10;;;;;;5951598;24;20016;-91
2021/09/21 08:37:24;;;;;;;4.88;2.33;;;16.80;93.70;;;;;;5952155;24;20016;-91
2021/09/21 08:40:04;;;;;;;3.03;1.60;;;16.80;93.50;;;;;;5926003;24;20016;-91
2021/09/21 08:42:34;;;;;;;2.97;1.70;;;16.80;93.50;;;;;;5947563;24;20022;-93
2021/09/21 08:45:06;;;;;;;3.70;1.55;;;16.70;93.40;;;;;;5925399;24;20065;-91
2021/09/21 08:48:13;;;;;;;;;;;;;;;;;;;;;
2021/09/21 08:50:58;;;;;;;4.93;1.88;;;16.90;93.10;;;;;;5903799;24;20027;-91
2021/09/21 08:53:34;;;;;;;3.75;2.70;;;17.10;92.80;;;;;;5938317;24;20024;-90
2021/09/21 08:56:07;;;;;;;5.40;2.70;;;17.20;92.50;;;;;;5945764;23;20030;-91
2021/09/21 08:59:15;;;;;;;3.22;2.10;;;17.40;92.40;;;;;;6005561;23;20074;-91
2021/09/21 09:01:47;;;;;;;6.60;3.33;;;17.50;92.10;;;;;;6007448;23;20095;-88
2021/09/21 09:04:16;;;;;;;4.40;2.40;;;17.70;91.80;;;;;;6033096;23;20063;-86
2021/09/21 09:06:50;;;;;;;5.35;1.65;;;17.90;91.70;;;;;;6033243;23;20017;-88
2021/09/21 09:09:23;;;;;;;1.90;1.02;;;17.90;91.10;;;;;;5984986;23;20011;-89
2021/09/21 09:11:57;;;;;;;2.42;1.13;;;18.10;90.50;;;;;;6085308;23;20010;-87
2021/09/21 09:14:28;;;;;;;2.70;1.10;;;18.20;90.20;;;;;;6071412;23;20011;-90
2021/09/21 09:16:58;;;;;;;2.47;1.00;;;18.30;89.10;;;;;;6042871;23;20018;-89
2021/09/21 09:19:35;;;;;;;1.40;0.70;;;18.40;87.70;;;;;;6064787;23;20017;-88
2021/09/21 09:22:39;;;;;;;1.67;0.80;;;18.50;86.80;;;;;;6067660;23;20014;-87
2021/09/21 09:29:58;;;;;;;1.30;0.70;;;18.60;85.70;;;;;;6091700;23;20015;-87
2021/09/21 09:32:26;;;;;;;2.63;1.08;;;18.70;84.30;;;;;;6046272;23;20017;-91
2021/09/21 09:35:00;;;;;;;1.77;0.65;;;18.80;83.80;;;;;;6070865;23;20013;-91
2021/09/21 09:46:29;;;;;;;;;;;;;;;;;;;;;
2021/09/21 09:49:56;;;;;;;2.78;1.30;;;19.10;79.40;;;;;;5981094;23;20016;-91
2021/09/21 10:02:02;;;;;;;2.30;0.80;;;19.50;76.40;;;;;;6023142;23;20349;-90
2021/09/21 10:04:36;;;;;;;1.45;0.70;;;19.50;76.60;;;;;;5990026;23;20013;-88
2021/09/21 10:07:59;;;;;;;1.17;0.65;;;19.60;76.80;;;;;;6032285;23;20041;-88
2021/09/21 10:11:09;;;;;;;1.90;0.75;;;19.70;77.00;;;;;;6045404;23;20014;-90
2021/09/21 10:13:52;;;;;;;1.67;0.80;;;20.00;76.00;;;;;;6067626;23;20794;-84
2021/09/21 10:17:03;;;;;;;1.58;0.82;;;20.10;75.30;;;;;;6014599;23;20022;-86
2021/09/21 10:19:59;;;;;;;1.40;0.70;;;20.30;75.70;;;;;;6050248;23;20421;-91
2021/09/21 10:22:31;;;;;;;1.30;0.52;;;20.60;76.00;;;;;;6044899;23;20031;-89
2021/09/21 10:25:06;;;;;;;1.65;0.70;;;20.90;74.80;;;;;;6041157;23;20356;-90
2021/09/21 10:27:38;;;;;;;2.20;0.60;;;21.10;73.20;;;;;;6038815;23;20015;-83
2021/09/21 10:30:10;;;;;;;1.17;0.77;;;21.30;72.80;;;;;;6040185;23;20022;-84
2021/09/21 10:32:50;;;;;;;2.00;0.80;;;21.50;71.20;;;;;;6064800;23;20010;-83
2021/09/21 10:35:27;;;;;;;5.10;0.80;;;21.60;69.60;;;;;;6061603;23;20428;-85
2021/09/21 10:38:03;;;;;;;1.98;1.00;;;21.80;70.80;;;;;;6038364;23;20015;-86
2021/09/21 10:40:42;;;;;;;2.65;0.70;;;22.10;70.30;;;;;;6017820;23;20018;-85
2021/09/21 10:43:20;;;;;;;2.03;0.85;;;22.30;69.30;;;;;;6028323;23;20308;-83
2021/09/21 10:46:00;;;;;;;1.10;0.70;;;22.60;68.70;;;;;;6039505;23;20030;-84
2021/09/21 10:48:50;;;;;;;2.55;0.70;;;22.80;67.90;;;;;;6037868;23;20347;-85
2021/09/21 10:52:12;;;;;;;1.52;0.70;;;23.10;65.90;;;;;;6047653;23;20052;-86
2021/09/21 10:54:57;;;;;;;2.20;0.75;;;23.30;64.80;;;;;;6040969;23;20021;-86
2021/09/21 10:57:33;;;;;;;1.77;0.50;;;23.50;64.40;;;;;;6063324;23;20029;-88
2021/09/21 11:00:12;;;;;;;1.17;0.63;;;23.70;62.50;;;;;;6051216;23;20397;-87
2021/09/21 11:02:45;;;;;;;1.30;0.60;;;23.80;60.70;;;;;;6093581;23;20044;-87
2021/09/21 11:05:17;;;;;;;2.85;0.60;;;24.10;60.20;;;;;;6044418;23;20010;-87
2021/09/21 11:08:02;;;;;;;1.42;0.60;;;24.30;60.30;;;;;;6118051;23;20049;-88
2021/09/21 11:10:49;;;;;;;1.98;0.80;;;24.60;59.10;;;;;;6045984;23;20451;-87
2021/09/21 11:13:40;;;;;;;2.50;0.70;;;24.80;58.10;;;;;;6067531;23;20020;-87
2021/09/21 11:16:12;;;;;;;1.67;0.60;;;25.00;58.00;;;;;;6066976;23;20006;-85
2021/09/21 11:19:11;;;;;;;1.73;0.70;;;25.20;57.10;;;;;;6091927;23;20336;-87
2021/09/21 11:22:08;;;;;;;1.45;0.60;;;25.30;56.80;;;;;;6070165;23;20025;-86
2021/09/21 11:25:15;;;;;;;1.52;0.73;;;25.60;55.50;;;;;;6043552;23;20010;-86
2021/09/21 11:28:31;;;;;;;1.52;0.88;;;25.70;53.70;;;;;;6056198;23;20018;-87
2021/09/21 11:32:28;;;;;;;1.23;0.80;;;25.80;53.30;;;;;;6010712;23;20012;-87
2021/09/21 11:36:49;;;;;;;2.92;0.88;;;25.50;52.30;;;;;;5995275;23;20011;-87
2021/09/21 11:44:20;;;;;;;1.88;0.90;;;25.80;52.20;;;;;;5916054;24;20380;-86
2021/09/21 11:51:50;;;;;;;;;;;;;;;;;;;;;
2021/09/21 11:59:44;;;;;;;2.80;0.98;;;26.20;51.40;;;;;;5845316;24;20029;-82
2021/09/21 12:02:19;;;;;;;1.42;0.90;;;26.20;51.30;;;;;;5869196;24;20021;-85
2021/09/21 12:05:12;;;;;;;1.20;0.80;;;26.30;51.20;;;;;;5947812;23;20041;-85
2021/09/21 12:14:20;;;;;;;4.10;2.55;;;26.50;50.40;;;;;;6056654;23;20009;-83
2021/09/21 12:16:51;;;;;;;7.90;6.57;;;26.60;50.40;;;;;;6068520;23;20010;-84
2021/09/21 12:19:19;;;;;;;2.63;1.27;;;26.80;49.90;;;;;;6072495;23;20010;-85
2021/09/21 12:21:47;;;;;;;7.07;2.90;;;26.80;49.30;;;;;;6046582;23;20549;-85
2021/09/21 12:24:13;;;;;;;5.00;1.77;;;26.80;49.50;;;;;;6072759;23;20006;-84
2021/09/21 12:26:40;;;;;;;2.13;1.00;;;26.70;50.20;;;;;;6046184;23;20013;-87
2021/09/21 12:29:08;;;;;;;3.72;1.02;;;26.60;50.10;;;;;;6045657;23;20013;-87
2021/09/21 12:31:35;;;;;;;3.00;0.82;;;26.50;50.50;;;;;;6122844;23;20014;-85
2021/09/21 12:34:14;;;;;;;2.75;1.80;;;26.40;50.00;;;;;;6057430;23;20447;-87
2021/09/21 12:36:48;;;;;;;2.33;1.30;;;26.20;50.10;;;;;;6048350;23;20002;-85
2021/09/21 12:39:17;;;;;;;2.75;0.80;;;26.00;50.10;;;;;;6108414;23;20009;-88
2021/09/21 12:41:53;;;;;;;3.00;0.80;;;25.80;51.10;;;;;;6054381;23;20024;-91
2021/09/21 12:44:22;;;;;;;1.60;0.73;;;25.70;51.50;;;;;;6075610;23;20014;-89
2021/09/21 12:46:54;;;;;;;3.00;1.08;;;25.50;50.60;;;;;;6075446;23;20006;-92
2021/09/21 12:49:25;;;;;;;1.15;0.70;;;25.30;50.60;;;;;;6053037;23;20009;-92
2021/09/21 12:51:59;;;;;;;2.67;1.00;;;25.10;51.50;;;;;;6055394;23;20009;-92
2021/09/21 12:54:47;;;;;;;2.35;1.20;;;25.20;51.00;;;;;;6054229;23;20032;-92
2021/09/21 12:57:21;;;;;;;2.00;0.98;;;24.90;51.00;;;;;;6077310;23;20652;-90
2021/09/21 12:59:53;;;;;;;1.70;0.98;;;24.70;52.20;;;;;;6053313;23;20018;-92
2021/09/21 13:02:20;;;;;;;2.10;1.00;;;24.70;53.40;;;;;;6051261;23;20014;-90
2021/09/21 13:04:50;;;;;;;1.83;0.80;;;24.70;52.70;;;;;;6048332;23;20032;-90
2021/09/21 13:07:17;;;;;;;2.10;1.00;;;24.80;52.80;;;;;;6048871;23;20777;-90
2021/09/21 13:09:43;;;;;;;2.97;1.13;;;24.90;52.40;;;;;;6051145;23;20006;-93
2021/09/21 13:12:10;;;;;;;4.32;1.58;;;25.00;52.50;;;;;;6051503;23;20020;-92
2021/09/21 13:14:41;;;;;;;4.05;1.60;;;25.00;52.70;;;;;;6052676;23;20056;-91
2021/09/21 13:17:08;;;;;;;2.83;1.30;;;24.90;52.90;;;;;;6078253;23;20013;-91
2021/09/21 13:19:37;;;;;;;2.58;1.30;;;24.80;53.10;;;;;;6052141;23;20772;-92
2021/09/21 13:22:07;;;;;;;3.00;1.10;;;24.70;52.90;;;;;;6048025;23;20348;-92
2021/09/21 13:24:33;;;;;;;2.20;1.20;;;24.80;53.50;;;;;;6053046;23;20013;-91
2021/09/21 13:27:00;;;;;;;2.33;1.00;;;25.00;53.30;;;;;;6053049;23;20017;-92
2021/09/21 13:29:38;;;;;;;1.70;1.00;;;25.30;53.10;;;;;;6053682;23;19994;-93
2021/09/21 13:32:06;;;;;;;1.92;0.90;;;25.60;52.00;;;;;;6030246;23;20037;-91
2021/09/21 13:34:33;;;;;;;1.90;0.90;;;25.80;52.20;;;;;;6052354;23;20040;-90
2021/09/21 13:37:10;;;;;;;2.80;1.10;;;25.80;51.90;;;;;;6050996;23;20576;-91
2021/09/21 13:39:37;;;;;;;2.67;0.95;;;25.60;51.80;;;;;;6073700;23;20096;-92
2021/09/21 13:42:06;;;;;;;1.55;0.80;;;25.40;51.90;;;;;;6030652;23;20010;-91
2021/09/21 13:44:36;;;;;;;1.95;0.77;;;25.20;52.20;;;;;;6057312;23;20010;-91
2021/09/21 13:47:04;;;;;;;2.60;1.00;;;24.90;52.80;;;;;;6054117;23;20093;-92
2021/09/21 13:49:40;;;;;;;1.58;0.80;;;24.60;53.60;;;;;;6060797;23;20010;-92
2021/09/21 13:52:09;;;;;;;2.33;1.00;;;24.30;53.30;;;;;;6056183;23;20029;-92
2021/09/21 13:54:37;;;;;;;2.92;0.80;;;24.00;54.10;;;;;;6055630;23;20017;-92
2021/09/21 13:57:04;;;;;;;2.35;1.02;;;23.80;54.80;;;;;;6055639;23;20005;-92
2021/09/21 13:59:34;;;;;;;3.42;0.90;;;23.50;54.60;;;;;;6078610;23;20006;-91
2021/09/21 14:02:06;;;;;;;1.90;1.25;;;23.40;54.80;;;;;;6056735;23;20018;-93
2021/09/21 14:04:34;;;;;;;;;;;23.20;55.40;;;;;;6059317;23;20013;-92
2021/09/21 14:07:02;;;;;;;1.70;0.80;;;23.10;55.70;;;;;;6054914;23;19916;-92
2021/09/21 14:09:48;;;;;;;2.92;1.05;;;23.00;56.40;;;;;;6054448;23;20017;-92
2021/09/21 14:12:17;;;;;;;2.72;0.98;;;23.00;56.90;;;;;;6041207;23;20432;-92
2021/09/21 14:14:44;;;;;;;2.90;1.00;;;22.90;57.70;;;;;;6078859;23;20013;-92
2021/09/21 14:17:12;;;;;;;2.47;1.00;;;22.90;57.80;;;;;;6056757;23;20016;-92
2021/09/21 14:19:39;;;;;;;2.10;1.00;;;22.80;57.20;;;;;;6054762;23;20010;-91
2021/09/21 14:22:06;;;;;;;1.92;0.82;;;22.70;57.20;;;;;;6055418;23;20006;-92
2021/09/21 14:24:37;;;;;;;2.30;1.15;;;22.60;57.20;;;;;;6055933;23;20010;-91
2021/09/21 14:27:04;;;;;;;3.83;1.30;;;22.50;57.70;;;;;;6054433;23;20010;-93
2021/09/21 14:29:31;;;;;;;2.85;0.82;;;22.40;57.80;;;;;;6055170;23;20006;-91
2021/09/21 14:32:01;;;;;;;3.15;0.73;;;22.30;58.10;;;;;;6055917;23;20009;-92
2021/09/21 14:34:28;;;;;;;2.63;0.70;;;22.30;58.60;;;;;;6054523;23;20010;-92
2021/09/21 14:36:55;;;;;;;1.10;0.70;;;22.20;58.50;;;;;;6053436;23;20020;-90
2021/09/21 14:39:21;;;;;;;4.45;0.80;;;22.20;58.40;;;;;;6051775;23;20010;-91
2021/09/21 14:41:48;;;;;;;1.92;0.77;;;22.20;58.60;;;;;;6048970;23;20459;-91
2021/09/21 14:44:15;;;;;;;2.28;0.65;;;22.10;58.70;;;;;;6049455;23;20002;-92
2021/09/21 14:46:49;;;;;;;1.60;0.60;;;22.00;59.80;;;;;;6004500;23;20021;-92
2021/09/21 14:49:20;;;;;;;1.67;1.05;;;22.00;59.70;;;;;;6050958;23;20010;-84
2021/09/21 14:51:50;;;;;;;3.70;1.17;;;21.90;59.10;;;;;;6069025;23;20017;-83
2021/09/21 14:54:17;;;;;;;1.73;0.70;;;21.90;59.00;;;;;;6118925;23;20059;-82
2021/09/21 14:56:44;;;;;;;1.88;0.93;;;21.80;59.30;;;;;;6043774;23;20009;-84
2021/09/21 14:59:12;;;;;;;1.58;0.70;;;21.70;59.20;;;;;;6070638;23;20052;-84
2021/09/21 15:01:42;;;;;;;3.80;1.48;;;21.60;59.90;;;;;;6093213;23;20068;-83
2021/09/21 15:04:14;;;;;;;3.58;2.08;;;21.60;60.60;;;;;;6045003;23;20010;-84
2021/09/21 15:06:44;;;;;;;3.83;1.00;;;21.50;60.60;;;;;;6070258;23;20021;-83
2021/09/21 15:09:10;;;;;;;2.15;0.90;;;21.50;61.20;;;;;;6093605;23;20443;-85
2021/09/21 15:11:45;;;;;;;3.92;0.73;;;21.50;61.40;;;;;;6071072;23;20017;-82
2021/09/21 15:14:12;;;;;;;3.08;0.50;;;21.50;61.90;;;;;;6093099;23;20010;-83
2021/09/21 15:16:39;;;;;;;1.70;0.70;;;21.50;62.20;;;;;;6068412;23;20016;-82
2021/09/21 15:19:07;;;;;;;3.10;1.35;;;21.50;62.50;;;;;;6079127;23;20020;-83
2021/09/21 15:21:34;;;;;;;3.53;1.63;;;21.40;62.80;;;;;;6066944;23;20014;-82
2021/09/21 15:24:03;;;;;;;2.42;0.98;;;21.40;62.70;;;;;;6119889;23;20010;-82
2021/09/21 15:26:30;;;;;;;2.42;0.77;;;21.30;62.80;;;;;;6067361;23;20010;-81
2021/09/21 15:28:57;;;;;;;1.55;0.52;;;21.20;62.80;;;;;;6066570;23;20335;-81
2021/09/21 15:31:27;;;;;;;1.40;0.70;;;21.20;62.90;;;;;;6090800;23;20014;-83
2021/09/21 15:33:56;;;;;;;1.67;1.00;;;21.10;63.40;;;;;;6043556;23;20025;-81
2021/09/21 15:36:23;;;;;;;1.38;0.60;;;21.00;63.70;;;;;;6090492;23;20014;-84
2021/09/21 15:38:53;;;;;;;2.20;0.60;;;21.00;64.10;;;;;;6041924;23;20450;-82
2021/09/21 15:41:20;;;;;;;6.40;0.70;;;20.90;64.50;;;;;;6091610;23;20071;-82
2021/09/21 15:43:46;;;;;;;1.98;0.50;;;20.80;64.80;;;;;;6041710;23;20014;-82
2021/09/21 15:46:13;;;;;;;1.00;0.60;;;20.70;65.30;;;;;;6040847;23;20466;-82
2021/09/21 15:48:40;;;;;;;3.80;0.98;;;20.70;65.90;;;;;;6040557;23;20547;-82
2021/09/21 15:51:10;;;;;;;2.50;1.20;;;20.60;66.40;;;;;;6066069;23;20006;-79
2021/09/21 15:53:38;;;;;;;4.47;1.10;;;20.60;66.80;;;;;;6121218;23;20017;-80
2021/09/21 15:56:04;;;;;;;1.55;0.70;;;20.50;66.90;;;;;;6092310;23;20006;-78
2021/09/21 15:58:31;;;;;;;1.98;0.50;;;20.50;67.40;;;;;;6071601;23;20021;-80
2021/09/21 16:00:58;;;;;;;1.38;0.50;;;20.40;67.80;;;;;;6070807;23;20029;-79
2021/09/21 16:03:24;;;;;;;4.18;1.50;;;20.40;68.80;;;;;;6047709;23;20114;-79
2021/09/21 16:05:51;;;;;;;2.58;1.38;;;20.30;68.20;;;;;;6068335;23;20356;-78
2021/09/21 16:08:17;;;;;;;1.77;0.65;;;20.20;68.30;;;;;;6067614;23;20344;-79
2021/09/21 16:10:45;;;;;;;1.73;0.80;;;20.10;68.40;;;;;;6044542;23;20044;-79
2021/09/21 16:13:12;;;;;;;1.73;0.70;;;20.10;68.90;;;;;;6119332;23;20045;-78
2021/09/21 16:15:48;;;;;;;1.55;0.75;;;20.00;69.20;;;;;;6044759;23;20029;-78
2021/09/21 16:18:15;;;;;;;2.28;0.80;;;19.90;69.70;;;;;;6119270;23;20032;-81
2021/09/21 16:20:44;;;;;;;3.83;0.60;;;19.80;70.00;;;;;;6045913;23;20014;-82
2021/09/21 16:23:11;;;;;;;1.45;0.70;;;19.80;70.50;;;;;;6044090;23;20698;-80
2021/09/21 16:25:38;;;;;;;2.65;0.60;;;19.70;70.90;;;;;;6044229;23;20014;-80
2021/09/21 16:28:07;;;;;;;2.58;0.60;;;19.60;71.50;;;;;;6042301;23;20018;-80
2021/09/21 16:30:35;;;;;;;1.58;0.70;;;19.50;71.70;;;;;;6068401;23;20010;-81
2021/09/21 16:33:04;;;;;;;2.13;0.60;;;19.40;71.80;;;;;;6093352;23;20017;-82
2021/09/21 16:35:35;;;;;;;1.67;0.50;;;19.30;71.90;;;;;;6068376;23;20018;-85
2021/09/21 16:38:10;;;;;;;0.90;0.50;;;19.20;72.00;;;;;;6067376;23;20064;-85
2021/09/21 16:40:41;;;;;;;1.25;0.60;;;19.10;72.90;;;;;;6095177;23;20017;-86